sensor_id;sensor_type;location;lat;lon;timestamp;pressure;altitude;pressure_sealevel;temperature;humidity
12676;BME280;63820;65.654;21.944;2023-05-24T00:02:41;100870.56;;;5.92;100.00
12676;BME280;63820;65.654;21.944;2023-05-24T00:05:26;100870.59;;;5.87;100.00
12676;BME280;63820;65.654;21.944;2023-05-24T00:08:14;100865.56;;;5.81;100.00
12676;BME280;63820;65.654;21.944;2023-05-24T00:10:59;100870.88;;;5.72;100.00
12676;BME280;63820;65.654;21.944;2023-05-24T00:13:44;100869.28;;;5.65;100.00
12676;BME280;63820;65.654;21.944;2023-05-24T00:16:28;100869.28;;;5.64;100.00
12676;BME280;63820;65.654;21.944;2023-05-24T00:19:12;100873.69;;;5.57;100.00
12676;BME280;63820;65.654;21.944;2023-05-24T00:22:00;100890.16;;;5.50;100.00
12676;BME280;63820;65.654;21.944;2023-05-24T00:24:46;100884.19;;;5.46;100.00
12676;BME280;63820;65.654;21.944;2023-05-24T00:27:30;100876.50;;;5.43;100.00
12676;BME280;63820;65.654;21.944;2023-05-24T00:30:16;100885.16;;;5.41;100.00
12676;BME280;63820;65.654;21.944;2023-05-24T00:33:00;100887.59;;;5.50;100.00
12676;BME280;63820;65.654;21.944;2023-05-24T00:35:44;100900.47;;;5.50;100.00
12676;BME280;63820;65.654;21.944;2023-05-24T00:38:29;100896.09;;;5.55;100.00
12676;BME280;63820;65.654;21.944;2023-05-24T00:41:13;100903.88;;;5.53;100.00
12676;BME280;63820;65.654;21.944;2023-05-24T00:43:57;100899.66;;;5.48;100.00
12676;BME280;63820;65.654;21.944;2023-05-24T00:46:41;100876.56;;;5.40;100.00
12676;BME280;63820;65.654;21.944;2023-05-24T00:49:25;100889.44;;;5.42;100.00
12676;BME280;63820;65.654;21.944;2023-05-24T00:52:10;100886.91;;;5.37;100.00
12676;BME280;63820;65.654;21.944;2023-05-24T00:54:54;100881.00;;;5.31;100.00
12676;BME280;63820;65.654;21.944;2023-05-24T00:57:38;100887.03;;;5.30;100.00
12676;BME280;63820;65.654;21.944;2023-05-24T01:00:22;100881.03;;;5.28;100.00
12676;BME280;63820;65.654;21.944;2023-05-24T01:03:07;100880.16;;;5.30;100.00
12676;BME280;63820;65.654;21.944;2023-05-24T01:05:51;100873.19;;;5.35;100.00
12676;BME280;63820;65.654;21.944;2023-05-24T01:11:43;100867.75;;;5.52;100.00
12676;BME280;63820;65.654;21.944;2023-05-24T01:15:08;100863.19;;;5.69;100.00
12676;BME280;63820;65.654;21.944;2023-05-24T01:20:45;100864.78;;;5.76;100.00
12676;BME280;63820;65.654;21.944;2023-05-24T01:26:31;100874.06;;;5.86;100.00
12676;BME280;63820;65.654;21.944;2023-05-24T01:29:20;100860.25;;;5.90;100.00
12676;BME280;63820;65.654;21.944;2023-05-24T01:32:06;100857.66;;;5.90;100.00
12676;BME280;63820;65.654;21.944;2023-05-24T01:34:50;100864.50;;;5.93;100.00
12676;BME280;63820;65.654;21.944;2023-05-24T01:37:34;100865.41;;;5.90;100.00
12676;BME280;63820;65.654;21.944;2023-05-24T01:40:18;100860.16;;;5.97;100.00
12676;BME280;63820;65.654;21.944;2023-05-24T01:46:18;100848.66;;;6.13;100.00
12676;BME280;63820;65.654;21.944;2023-05-24T01:52:02;100849.22;;;6.27;100.00
12676;BME280;63820;65.654;21.944;2023-05-24T01:54:51;100851.72;;;6.30;100.00
12676;BME280;63820;65.654;21.944;2023-05-24T01:57:37;100850.84;;;6.31;100.00
12676;BME280;63820;65.654;21.944;2023-05-24T02:00:24;100856.78;;;6.36;100.00
12676;BME280;63820;65.654;21.944;2023-05-24T02:03:12;100854.84;;;6.47;100.00
12676;BME280;63820;65.654;21.944;2023-05-24T02:05:56;100857.28;;;6.53;100.00
12676;BME280;63820;65.654;21.944;2023-05-24T02:08:41;100863.91;;;6.67;100.00
12676;BME280;63820;65.654;21.944;2023-05-24T02:11:24;100865.31;;;6.81;100.00
12676;BME280;63820;65.654;21.944;2023-05-24T02:14:08;100868.53;;;6.93;100.00
12676;BME280;63820;65.654;21.944;2023-05-24T02:16:52;100870.00;;;7.04;100.00
12676;BME280;63820;65.654;21.944;2023-05-24T02:19:41;100870.41;;;7.25;100.00
12676;BME280;63820;65.654;21.944;2023-05-24T02:22:26;100867.38;;;7.41;100.00
12676;BME280;63820;65.654;21.944;2023-05-24T02:25:10;100866.97;;;7.58;100.00
12676;BME280;63820;65.654;21.944;2023-05-24T02:27:54;100844.91;;;7.77;100.00
12676;BME280;63820;65.654;21.944;2023-05-24T02:30:38;100856.84;;;7.83;100.00
12676;BME280;63820;65.654;21.944;2023-05-24T02:33:22;100858.34;;;7.92;100.00
12676;BME280;63820;65.654;21.944;2023-05-24T02:36:08;100851.91;;;8.06;100.00
12676;BME280;63820;65.654;21.944;2023-05-24T02:38:52;100840.88;;;8.31;100.00
12676;BME280;63820;65.654;21.944;2023-05-24T02:41:36;100847.69;;;8.35;100.00
12676;BME280;63820;65.654;21.944;2023-05-24T02:44:20;100838.22;;;8.32;100.00
12676;BME280;63820;65.654;21.944;2023-05-24T02:47:04;100839.22;;;8.28;100.00
12676;BME280;63820;65.654;21.944;2023-05-24T02:49:49;100836.75;;;8.24;100.00
12676;BME280;63820;65.654;21.944;2023-05-24T02:52:33;100841.44;;;8.11;100.00
12676;BME280;63820;65.654;21.944;2023-05-24T02:55:17;100842.41;;;8.07;100.00
12676;BME280;63820;65.654;21.944;2023-05-24T02:58:02;100845.88;;;8.06;100.00
12676;BME280;63820;65.654;21.944;2023-05-24T03:00:46;100846.53;;;8.14;100.00
12676;BME280;63820;65.654;21.944;2023-05-24T03:03:29;100841.91;;;8.25;100.00
12676;BME280;63820;65.654;21.944;2023-05-24T03:06:13;100837.19;;;8.39;100.00
12676;BME280;63820;65.654;21.944;2023-05-24T03:08:58;100844.63;;;8.51;100.00
12676;BME280;63820;65.654;21.944;2023-05-24T03:11:42;100845.97;;;8.65;100.00
12676;BME280;63820;65.654;21.944;2023-05-24T03:14:26;100843.81;;;8.79;100.00
12676;BME280;63820;65.654;21.944;2023-05-24T03:17:10;100844.34;;;8.90;100.00
12676;BME280;63820;65.654;21.944;2023-05-24T03:19:54;100837.97;;;9.00;100.00
12676;BME280;63820;65.654;21.944;2023-05-24T03:22:38;100833.81;;;9.23;100.00
12676;BME280;63820;65.654;21.944;2023-05-24T03:25:22;100840.25;;;9.62;100.00
12676;BME280;63820;65.654;21.944;2023-05-24T03:28:06;100844.56;;;10.13;100.00
12676;BME280;63820;65.654;21.944;2023-05-24T03:30:50;100836.31;;;10.95;100.00
12676;BME280;63820;65.654;21.944;2023-05-24T03:33:34;100846.66;;;12.42;100.00
12676;BME280;63820;65.654;21.944;2023-05-24T03:36:18;100839.38;;;13.75;100.00
12676;BME280;63820;65.654;21.944;2023-05-24T03:39:04;100832.88;;;15.59;100.00
12676;BME280;63820;65.654;21.944;2023-05-24T03:41:49;100825.63;;;17.05;100.00
12676;BME280;63820;65.654;21.944;2023-05-24T03:44:33;100832.78;;;18.20;97.04
12676;BME280;63820;65.654;21.944;2023-05-24T03:47:17;100835.34;;;19.07;81.83
12676;BME280;63820;65.654;21.944;2023-05-24T03:50:01;100824.63;;;18.98;80.40
12676;BME280;63820;65.654;21.944;2023-05-24T03:52:45;100835.09;;;18.86;73.23
12676;BME280;63820;65.654;21.944;2023-05-24T03:55:30;100832.59;;;16.91;90.29
12676;BME280;63820;65.654;21.944;2023-05-24T03:58:14;100821.03;;;17.48;91.46
12676;BME280;63820;65.654;21.944;2023-05-24T04:00:59;100822.56;;;18.28;83.05
12676;BME280;63820;65.654;21.944;2023-05-24T04:03:44;100815.59;;;18.76;78.25
12676;BME280;63820;65.654;21.944;2023-05-24T04:06:29;100818.81;;;18.92;73.33
12676;BME280;63820;65.654;21.944;2023-05-24T04:09:13;100809.06;;;17.82;81.65
12676;BME280;63820;65.654;21.944;2023-05-24T04:11:57;100802.78;;;16.78;87.49
12676;BME280;63820;65.654;21.944;2023-05-24T04:14:41;100797.88;;;15.88;100.00
12676;BME280;63820;65.654;21.944;2023-05-24T04:17:26;100785.84;;;15.10;100.00
12676;BME280;63820;65.654;21.944;2023-05-24T04:20:12;100785.19;;;14.91;100.00
12676;BME280;63820;65.654;21.944;2023-05-24T04:22:57;100782.47;;;14.29;100.00
12676;BME280;63820;65.654;21.944;2023-05-24T04:25:41;100779.09;;;13.94;100.00
12676;BME280;63820;65.654;21.944;2023-05-24T04:28:25;100776.16;;;14.96;100.00
12676;BME280;63820;65.654;21.944;2023-05-24T04:31:09;100766.47;;;14.51;100.00
12676;BME280;63820;65.654;21.944;2023-05-24T04:33:55;100762.34;;;14.14;100.00
12676;BME280;63820;65.654;21.944;2023-05-24T04:36:40;100784.19;;;15.97;100.00
12676;BME280;63820;65.654;21.944;2023-05-24T04:39:24;100778.56;;;16.32;92.93
12676;BME280;63820;65.654;21.944;2023-05-24T04:42:09;100781.19;;;15.15;100.00
12676;BME280;63820;65.654;21.944;2023-05-24T04:44:53;100771.19;;;14.76;100.00
12676;BME280;63820;65.654;21.944;2023-05-24T04:47:40;100778.78;;;14.00;100.00
12676;BME280;63820;65.654;21.944;2023-05-24T04:50:27;100782.28;;;13.84;100.00
12676;BME280;63820;65.654;21.944;2023-05-24T04:53:11;100786.09;;;13.94;100.00
12676;BME280;63820;65.654;21.944;2023-05-24T04:55:55;100781.22;;;13.70;100.00
12676;BME280;63820;65.654;21.944;2023-05-24T04:58:40;100786.78;;;13.30;100.00
12676;BME280;63820;65.654;21.944;2023-05-24T05:01:24;100782.28;;;13.15;100.00
12676;BME280;63820;65.654;21.944;2023-05-24T05:04:08;100783.34;;;13.80;100.00
12676;BME280;63820;65.654;21.944;2023-05-24T05:06:52;100779.84;;;13.63;100.00
12676;BME280;63820;65.654;21.944;2023-05-24T05:09:38;100781.94;;;14.56;100.00
12676;BME280;63820;65.654;21.944;2023-05-24T05:12:22;100781.91;;;14.71;100.00
12676;BME280;63820;65.654;21.944;2023-05-24T05:15:07;100789.38;;;14.48;100.00
12676;BME280;63820;65.654;21.944;2023-05-24T05:17:52;100783.75;;;14.38;100.00
12676;BME280;63820;65.654;21.944;2023-05-24T05:20:35;100784.38;;;14.75;100.00
12676;BME280;63820;65.654;21.944;2023-05-24T05:23:19;100772.41;;;15.00;100.00
12676;BME280;63820;65.654;21.944;2023-05-24T05:26:03;100780.50;;;15.57;100.00
12676;BME280;63820;65.654;21.944;2023-05-24T05:28:49;100778.72;;;17.11;89.31
12676;BME280;63820;65.654;21.944;2023-05-24T05:31:33;100778.84;;;17.62;80.29
12676;BME280;63820;65.654;21.944;2023-05-24T05:34:17;100772.03;;;20.44;70.91
12676;BME280;63820;65.654;21.944;2023-05-24T05:37:02;100765.75;;;23.13;56.05
12676;BME280;63820;65.654;21.944;2023-05-24T05:39:47;100766.97;;;22.00;54.86
12676;BME280;63820;65.654;21.944;2023-05-24T05:42:31;100755.97;;;19.45;59.14
12676;BME280;63820;65.654;21.944;2023-05-24T05:45:15;100749.75;;;21.33;58.83
12676;BME280;63820;65.654;21.944;2023-05-24T05:48:00;100747.09;;;22.05;52.80
12676;BME280;63820;65.654;21.944;2023-05-24T05:50:43;100731.00;;;21.67;52.51
12676;BME280;63820;65.654;21.944;2023-05-24T05:53:27;100732.97;;;22.45;51.00
12676;BME280;63820;65.654;21.944;2023-05-24T05:56:11;100742.50;;;21.77;51.09
12676;BME280;63820;65.654;21.944;2023-05-24T05:58:55;100745.31;;;22.65;50.71
12676;BME280;63820;65.654;21.944;2023-05-24T06:01:39;100755.03;;;22.05;50.74
12676;BME280;63820;65.654;21.944;2023-05-24T06:04:24;100762.00;;;22.37;50.67
12676;BME280;63820;65.654;21.944;2023-05-24T06:07:08;100750.34;;;22.78;48.95
12676;BME280;63820;65.654;21.944;2023-05-24T06:09:51;100756.50;;;23.93;46.51
12676;BME280;63820;65.654;21.944;2023-05-24T06:12:36;100757.25;;;23.85;46.22
12676;BME280;63820;65.654;21.944;2023-05-24T06:15:21;100765.19;;;22.80;46.69
12676;BME280;63820;65.654;21.944;2023-05-24T06:18:05;100763.22;;;23.11;47.18
12676;BME280;63820;65.654;21.944;2023-05-24T06:20:49;100756.88;;;20.35;50.99
12676;BME280;63820;65.654;21.944;2023-05-24T06:23:34;100756.28;;;20.09;51.69
12676;BME280;63820;65.654;21.944;2023-05-24T06:26:19;100759.41;;;20.59;52.04
12676;BME280;63820;65.654;21.944;2023-05-24T06:29:04;100749.31;;;20.53;52.01
12676;BME280;63820;65.654;21.944;2023-05-24T06:31:48;100760.81;;;19.51;53.93
12676;BME280;63820;65.654;21.944;2023-05-24T06:34:32;100756.75;;;20.25;52.96
12676;BME280;63820;65.654;21.944;2023-05-24T06:37:16;100757.06;;;23.21;47.80
12676;BME280;63820;65.654;21.944;2023-05-24T06:40:00;100760.56;;;24.34;44.49
12676;BME280;63820;65.654;21.944;2023-05-24T06:42:45;100763.00;;;25.08;42.98
12676;BME280;63820;65.654;21.944;2023-05-24T06:45:29;100758.94;;;26.59;41.30
12676;BME280;63820;65.654;21.944;2023-05-24T06:48:13;100760.69;;;27.17;39.55
12676;BME280;63820;65.654;21.944;2023-05-24T06:50:57;100762.69;;;27.15;38.83
12676;BME280;63820;65.654;21.944;2023-05-24T06:53:41;100763.78;;;27.94;37.61
12676;BME280;63820;65.654;21.944;2023-05-24T06:56:25;100757.41;;;28.42;35.89
12676;BME280;63820;65.654;21.944;2023-05-24T06:59:09;100739.94;;;26.70;37.74
12676;BME280;63820;65.654;21.944;2023-05-24T07:01:53;100750.34;;;26.05;39.29
12676;BME280;63820;65.654;21.944;2023-05-24T07:04:40;100750.59;;;26.70;37.34
12676;BME280;63820;65.654;21.944;2023-05-24T07:07:25;100754.31;;;26.94;36.93
12676;BME280;63820;65.654;21.944;2023-05-24T07:10:10;100753.72;;;22.90;42.30
12676;BME280;63820;65.654;21.944;2023-05-24T07:12:55;100758.75;;;22.93;43.00
12676;BME280;63820;65.654;21.944;2023-05-24T07:15:40;100757.75;;;23.52;42.82
12676;BME280;63820;65.654;21.944;2023-05-24T07:18:25;100770.41;;;23.87;42.05
12676;BME280;63820;65.654;21.944;2023-05-24T07:21:09;100763.31;;;24.42;41.20
12676;BME280;63820;65.654;21.944;2023-05-24T07:23:53;100750.50;;;21.24;45.54
12676;BME280;63820;65.654;21.944;2023-05-24T07:26:37;100749.78;;;23.32;44.13
12676;BME280;63820;65.654;21.944;2023-05-24T07:29:21;100746.06;;;22.37;43.79
12676;BME280;63820;65.654;21.944;2023-05-24T07:32:05;100748.53;;;21.58;44.50
12676;BME280;63820;65.654;21.944;2023-05-24T07:34:49;100742.66;;;22.65;42.80
12676;BME280;63820;65.654;21.944;2023-05-24T07:37:34;100737.78;;;22.99;42.03
12676;BME280;63820;65.654;21.944;2023-05-24T07:40:18;100726.03;;;25.49;39.27
12676;BME280;63820;65.654;21.944;2023-05-24T07:43:02;100725.19;;;26.50;37.95
12676;BME280;63820;65.654;21.944;2023-05-24T07:45:46;100740.00;;;28.07;35.42
12676;BME280;63820;65.654;21.944;2023-05-24T07:48:30;100738.97;;;27.20;35.92
12676;BME280;63820;65.654;21.944;2023-05-24T07:51:14;100728.91;;;26.74;36.29
12676;BME280;63820;65.654;21.944;2023-05-24T07:53:58;100729.66;;;23.59;39.15
12676;BME280;63820;65.654;21.944;2023-05-24T07:56:43;100727.38;;;23.73;40.17
12676;BME280;63820;65.654;21.944;2023-05-24T07:59:27;100716.22;;;22.44;41.24
12676;BME280;63820;65.654;21.944;2023-05-24T08:02:12;100715.16;;;22.76;41.94
12676;BME280;63820;65.654;21.944;2023-05-24T08:04:58;100713.59;;;21.43;42.94
12676;BME280;63820;65.654;21.944;2023-05-24T08:07:42;100724.09;;;20.49;44.19
12676;BME280;63820;65.654;21.944;2023-05-24T08:10:26;100723.38;;;20.02;43.88
12676;BME280;63820;65.654;21.944;2023-05-24T08:13:11;100729.31;;;20.92;44.83
12676;BME280;63820;65.654;21.944;2023-05-24T08:15:55;100739.94;;;20.60;44.96
12676;BME280;63820;65.654;21.944;2023-05-24T08:18:41;100731.59;;;21.29;41.45
12676;BME280;63820;65.654;21.944;2023-05-24T08:21:25;100734.78;;;19.91;43.39
12676;BME280;63820;65.654;21.944;2023-05-24T08:24:11;100718.31;;;20.44;43.80
12676;BME280;63820;65.654;21.944;2023-05-24T08:26:56;100726.75;;;20.04;43.45
12676;BME280;63820;65.654;21.944;2023-05-24T08:29:40;100713.06;;;19.77;43.88
12676;BME280;63820;65.654;21.944;2023-05-24T08:32:24;100718.34;;;19.99;43.75
12676;BME280;63820;65.654;21.944;2023-05-24T08:35:09;100716.69;;;18.94;44.70
12676;BME280;63820;65.654;21.944;2023-05-24T08:37:55;100719.91;;;18.26;45.98
12676;BME280;63820;65.654;21.944;2023-05-24T08:40:39;100716.50;;;17.50;48.38
12676;BME280;63820;65.654;21.944;2023-05-24T08:43:23;100724.03;;;17.16;49.31
12676;BME280;63820;65.654;21.944;2023-05-24T08:46:09;100728.16;;;16.81;49.18
12676;BME280;63820;65.654;21.944;2023-05-24T08:48:56;100727.44;;;16.91;50.15
12676;BME280;63820;65.654;21.944;2023-05-24T08:51:43;100730.59;;;17.36;51.15
12676;BME280;63820;65.654;21.944;2023-05-24T08:54:28;100726.63;;;17.81;49.59
12676;BME280;63820;65.654;21.944;2023-05-24T08:57:14;100726.59;;;18.07;49.97
12676;BME280;63820;65.654;21.944;2023-05-24T08:59:58;100717.84;;;18.06;49.07
12676;BME280;63820;65.654;21.944;2023-05-24T09:02:44;100713.78;;;18.39;48.52
12676;BME280;63820;65.654;21.944;2023-05-24T09:05:29;100721.28;;;19.04;47.65
12676;BME280;63820;65.654;21.944;2023-05-24T09:08:13;100717.03;;;19.93;46.84
12676;BME280;63820;65.654;21.944;2023-05-24T09:11:01;100723.56;;;20.87;45.68
12676;BME280;63820;65.654;21.944;2023-05-24T09:13:47;100726.31;;;19.42;46.32
12676;BME280;63820;65.654;21.944;2023-05-24T09:16:32;100718.03;;;19.00;46.49
12676;BME280;63820;65.654;21.944;2023-05-24T09:19:16;100715.88;;;19.40;45.68
12676;BME280;63820;65.654;21.944;2023-05-24T09:22:01;100698.94;;;18.85;48.10
12676;BME280;63820;65.654;21.944;2023-05-24T09:24:49;100709.97;;;17.93;46.41
12676;BME280;63820;65.654;21.944;2023-05-24T09:27:34;100728.94;;;16.95;47.63
12676;BME280;63820;65.654;21.944;2023-05-24T09:30:19;100740.59;;;17.31;49.33
12676;BME280;63820;65.654;21.944;2023-05-24T09:33:06;100734.59;;;17.29;49.33
12676;BME280;63820;65.654;21.944;2023-05-24T09:35:56;100750.56;;;17.66;48.79
12676;BME280;63820;65.654;21.944;2023-05-24T09:38:41;100737.31;;;18.16;48.96
12676;BME280;63820;65.654;21.944;2023-05-24T09:41:26;100739.25;;;17.89;48.33
12676;BME280;63820;65.654;21.944;2023-05-24T09:44:12;100724.94;;;17.80;49.35
12676;BME280;63820;65.654;21.944;2023-05-24T09:47:02;100734.94;;;16.97;49.45
12676;BME280;63820;65.654;21.944;2023-05-24T09:49:50;100731.63;;;16.81;51.79
12676;BME280;63820;65.654;21.944;2023-05-24T09:52:35;100726.41;;;16.94;50.45
12676;BME280;63820;65.654;21.944;2023-05-24T09:55:20;100735.44;;;16.63;50.15
12676;BME280;63820;65.654;21.944;2023-05-24T09:58:06;100727.97;;;16.43;51.19
12676;BME280;63820;65.654;21.944;2023-05-24T10:01:03;100724.31;;;16.45;51.54
12676;BME280;63820;65.654;21.944;2023-05-24T10:03:56;100744.34;;;16.19;52.62
12676;BME280;63820;65.654;21.944;2023-05-24T10:06:41;100730.81;;;16.25;53.20
12676;BME280;63820;65.654;21.944;2023-05-24T10:09:25;100730.16;;;16.22;53.60
12676;BME280;63820;65.654;21.944;2023-05-24T10:12:16;100725.03;;;16.06;52.83
12676;BME280;63820;65.654;21.944;2023-05-24T10:15:02;100731.22;;;15.91;53.39
12676;BME280;63820;65.654;21.944;2023-05-24T10:17:46;100738.34;;;16.17;53.55
12676;BME280;63820;65.654;21.944;2023-05-24T10:20:30;100758.41;;;16.74;53.26
12676;BME280;63820;65.654;21.944;2023-05-24T10:23:18;100753.09;;;16.61;52.83
12676;BME280;63820;65.654;21.944;2023-05-24T10:26:06;100768.13;;;16.45;54.41
12676;BME280;63820;65.654;21.944;2023-05-24T10:28:54;100767.38;;;16.43;55.34
12676;BME280;63820;65.654;21.944;2023-05-24T10:31:40;100772.19;;;16.22;54.19
12676;BME280;63820;65.654;21.944;2023-05-24T10:34:25;100786.06;;;15.51;54.64
12676;BME280;63820;65.654;21.944;2023-05-24T10:37:09;100791.31;;;15.51;55.75
12676;BME280;63820;65.654;21.944;2023-05-24T10:39:54;100786.97;;;15.36;56.11
12676;BME280;63820;65.654;21.944;2023-05-24T10:42:38;100791.44;;;15.64;56.22
12676;BME280;63820;65.654;21.944;2023-05-24T10:45:29;100787.06;;;15.34;55.68
12676;BME280;63820;65.654;21.944;2023-05-24T10:51:29;100793.72;;;15.70;57.54
12676;BME280;63820;65.654;21.944;2023-05-24T10:54:19;100784.94;;;15.41;57.23
12676;BME280;63820;65.654;21.944;2023-05-24T10:57:08;100788.22;;;16.03;57.00
12676;BME280;63820;65.654;21.944;2023-05-24T10:59:55;100783.97;;;15.72;57.13
12676;BME280;63820;65.654;21.944;2023-05-24T11:02:39;100787.09;;;15.49;57.72
12676;BME280;63820;65.654;21.944;2023-05-24T11:05:24;100786.81;;;14.93;58.75
12676;BME280;63820;65.654;21.944;2023-05-24T11:08:08;100795.00;;;15.03;59.41
12676;BME280;63820;65.654;21.944;2023-05-24T11:13:47;100809.13;;;14.69;61.86
12676;BME280;63820;65.654;21.944;2023-05-24T11:19:20;100794.34;;;14.68;63.49
12676;BME280;63820;65.654;21.944;2023-05-24T11:22:06;100804.66;;;14.55;63.39
12676;BME280;63820;65.654;21.944;2023-05-24T11:24:51;100812.56;;;14.38;64.80
12676;BME280;63820;65.654;21.944;2023-05-24T11:27:42;100819.25;;;14.11;69.77
12676;BME280;63820;65.654;21.944;2023-05-24T11:30:27;100807.81;;;14.29;79.88
12676;BME280;63820;65.654;21.944;2023-05-24T11:33:20;100794.47;;;14.00;91.87
12676;BME280;63820;65.654;21.944;2023-05-24T11:36:06;100795.59;;;13.79;100.00
12676;BME280;63820;65.654;21.944;2023-05-24T11:38:52;100790.22;;;13.65;100.00
12676;BME280;63820;65.654;21.944;2023-05-24T11:41:37;100789.22;;;13.67;100.00
12676;BME280;63820;65.654;21.944;2023-05-24T11:44:22;100791.59;;;13.55;100.00
12676;BME280;63820;65.654;21.944;2023-05-24T11:47:07;100801.84;;;13.42;100.00
12676;BME280;63820;65.654;21.944;2023-05-24T11:49:51;100800.91;;;13.60;100.00
12676;BME280;63820;65.654;21.944;2023-05-24T11:52:41;100806.00;;;13.46;100.00
12676;BME280;63820;65.654;21.944;2023-05-24T11:55:26;100799.13;;;13.61;100.00
12676;BME280;63820;65.654;21.944;2023-05-24T12:01:22;100815.97;;;13.55;100.00
12676;BME280;63820;65.654;21.944;2023-05-24T12:04:06;100812.78;;;13.50;100.00
12676;BME280;63820;65.654;21.944;2023-05-24T12:06:52;100804.28;;;13.62;100.00
12676;BME280;63820;65.654;21.944;2023-05-24T12:09:37;100796.28;;;13.65;100.00
12676;BME280;63820;65.654;21.944;2023-05-24T12:12:22;100810.81;;;13.71;100.00
12676;BME280;63820;65.654;21.944;2023-05-24T12:15:07;100809.25;;;13.51;100.00
12676;BME280;63820;65.654;21.944;2023-05-24T12:17:51;100801.97;;;13.56;100.00
12676;BME280;63820;65.654;21.944;2023-05-24T12:20:36;100813.84;;;13.46;100.00
12676;BME280;63820;65.654;21.944;2023-05-24T12:23:25;100818.59;;;13.55;100.00
12676;BME280;63820;65.654;21.944;2023-05-24T12:26:17;100817.47;;;13.44;100.00
12676;BME280;63820;65.654;21.944;2023-05-24T12:29:05;100823.78;;;13.39;100.00
12676;BME280;63820;65.654;21.944;2023-05-24T12:31:49;100819.66;;;13.17;100.00
12676;BME280;63820;65.654;21.944;2023-05-24T12:34:34;100823.28;;;13.31;100.00
12676;BME280;63820;65.654;21.944;2023-05-24T12:37:18;100828.06;;;13.23;100.00
12676;BME280;63820;65.654;21.944;2023-05-24T12:40:12;100826.44;;;13.21;100.00
12676;BME280;63820;65.654;21.944;2023-05-24T12:42:56;100825.22;;;13.28;100.00
12676;BME280;63820;65.654;21.944;2023-05-24T12:45:41;100823.44;;;13.09;100.00
12676;BME280;63820;65.654;21.944;2023-05-24T12:48:25;100830.44;;;13.09;100.00
12676;BME280;63820;65.654;21.944;2023-05-24T12:51:09;100827.44;;;13.18;100.00
12676;BME280;63820;65.654;21.944;2023-05-24T12:53:53;100837.38;;;13.10;100.00
12676;BME280;63820;65.654;21.944;2023-05-24T12:56:38;100840.81;;;13.10;100.00
12676;BME280;63820;65.654;21.944;2023-05-24T12:59:22;100831.50;;;13.24;100.00
12676;BME280;63820;65.654;21.944;2023-05-24T13:02:06;100830.81;;;13.20;100.00
12676;BME280;63820;65.654;21.944;2023-05-24T13:04:50;100827.16;;;13.41;100.00
12676;BME280;63820;65.654;21.944;2023-05-24T13:07:35;100824.47;;;13.43;100.00
12676;BME280;63820;65.654;21.944;2023-05-24T13:10:19;100825.13;;;13.64;100.00
12676;BME280;63820;65.654;21.944;2023-05-24T13:13:04;100808.72;;;13.95;100.00
12676;BME280;63820;65.654;21.944;2023-05-24T13:15:48;100806.53;;;14.20;100.00
12676;BME280;63820;65.654;21.944;2023-05-24T13:18:32;100815.50;;;14.32;100.00
12676;BME280;63820;65.654;21.944;2023-05-24T13:21:17;100810.16;;;14.51;100.00
12676;BME280;63820;65.654;21.944;2023-05-24T13:24:02;100816.31;;;14.50;100.00
12676;BME280;63820;65.654;21.944;2023-05-24T13:26:46;100828.31;;;14.54;100.00
12676;BME280;63820;65.654;21.944;2023-05-24T13:29:31;100828.28;;;15.01;100.00
12676;BME280;63820;65.654;21.944;2023-05-24T13:32:15;100823.91;;;14.70;100.00
12676;BME280;63820;65.654;21.944;2023-05-24T13:34:59;100821.53;;;14.81;97.78
12676;BME280;63820;65.654;21.944;2023-05-24T13:37:43;100800.91;;;14.75;98.35
12676;BME280;63820;65.654;21.944;2023-05-24T13:40:28;100817.69;;;14.39;99.42
12676;BME280;63820;65.654;21.944;2023-05-24T13:43:12;100820.00;;;14.13;100.00
12676;BME280;63820;65.654;21.944;2023-05-24T13:45:56;100815.13;;;13.89;100.00
12676;BME280;63820;65.654;21.944;2023-05-24T13:48:41;100800.75;;;13.81;100.00
12676;BME280;63820;65.654;21.944;2023-05-24T13:51:25;100796.91;;;13.70;100.00
12676;BME280;63820;65.654;21.944;2023-05-24T13:54:10;100798.28;;;13.60;100.00
12676;BME280;63820;65.654;21.944;2023-05-24T13:56:54;100803.75;;;13.56;100.00
12676;BME280;63820;65.654;21.944;2023-05-24T13:59:40;100807.38;;;13.53;100.00
12676;BME280;63820;65.654;21.944;2023-05-24T14:02:25;100811.09;;;13.49;100.00
12676;BME280;63820;65.654;21.944;2023-05-24T14:05:09;100808.59;;;13.63;100.00
12676;BME280;63820;65.654;21.944;2023-05-24T14:07:57;100808.81;;;13.59;100.00
12676;BME280;63820;65.654;21.944;2023-05-24T14:10:46;100817.78;;;13.37;100.00
12676;BME280;63820;65.654;21.944;2023-05-24T14:13:32;100823.44;;;13.28;100.00
12676;BME280;63820;65.654;21.944;2023-05-24T14:16:17;100819.78;;;13.14;100.00
12676;BME280;63820;65.654;21.944;2023-05-24T14:19:01;100808.41;;;13.15;100.00
12676;BME280;63820;65.654;21.944;2023-05-24T14:21:46;100820.63;;;13.14;100.00
12676;BME280;63820;65.654;21.944;2023-05-24T14:24:30;100820.34;;;13.20;100.00
12676;BME280;63820;65.654;21.944;2023-05-24T14:27:14;100810.69;;;13.22;100.00
12676;BME280;63820;65.654;21.944;2023-05-24T14:29:58;100814.91;;;13.25;100.00
12676;BME280;63820;65.654;21.944;2023-05-24T14:32:42;100797.94;;;13.33;100.00
12676;BME280;63820;65.654;21.944;2023-05-24T14:35:26;100798.03;;;13.13;100.00
12676;BME280;63820;65.654;21.944;2023-05-24T14:38:11;100797.91;;;13.16;100.00